This is the latest recevied weather packets stored in our database for station/object KO4RJX-10. If no packets are shown the sender has not sent any weather packets the latest 10 day(s).
| Time | Temp. | Humidity | Pressure | Rain* | Wind** | Luminosity | Snow |
|---|---|---|---|---|---|---|---|
| 1777512183 | 21.11° C | 77% | 1001 hPa | 0 mm | - | - | - |
| 1777507915 | 21.67° C | 72% | 1000.7 hPa | 0 mm | - | - | - |
| 1777506583 | 22.22° C | 69% | 1000.3 hPa | 0 mm | - | - | - |
| 1777504983 | 23.33° C | 62% | 1000.3 hPa | 0 mm | - | - | - |
| 1777502583 | 24.44° C | 58% | 1000.7 hPa | 0 mm | - | - | - |
| 1777500183 | 25° C | 58% | 1000.7 hPa | 0 mm | - | - | - |
| 1777498184 | 24.44° C | 61% | 1001 hPa | 0 mm | - | - | - |
| 1777497783 | 23.89° C | 62% | 1001 hPa | 0 mm | - | - | - |
| 1777494183 | 23.89° C | 63% | 1002 hPa | 0 mm | - | - | - |
| 1777492584 | 23.33° C | 65% | 1002.4 hPa | 0 mm | - | - | - |
| 1777487384 | 21.11° C | 70% | 1004.1 hPa | 0 mm | - | - | - |
| 1777485783 | 21.11° C | 70% | 1004.1 hPa | 0 mm | - | - | - |
| 1777483783 | 20.56° C | 72% | 1004.4 hPa | 0 mm | - | - | - |
| 1777482183 | 20° C | 75% | 1005.1 hPa | 0 mm | - | - | - |
| 1777480983 | 19.44° C | 76% | 1005.4 hPa | 0 mm | - | - | - |
| 1777478716 | 19.44° C | 74% | 1006.1 hPa | 0 mm | - | - | - |
| 1777475783 | 19.44° C | 70% | 1006.8 hPa | 0 mm | - | - | - |
| 1777474983 | 20° C | 71% | 1006.8 hPa | 0 mm | - | - | - |
| 1777469783 | 18.33° C | 76% | 1007.8 hPa | 0 mm | - | - | - |
| 1777467783 | 17.78° C | 79% | 1007.8 hPa | 0 mm | - | - | - |
| 1777464983 | 16.11° C | 86% | 1008.1 hPa | 0 mm | - | - | - |
| 1777463384 | 15° C | 91% | 1008.1 hPa | 0 mm | - | - | - |
| 1777462983 | 15° C | 91% | 1008.1 hPa | 0 mm | - | - | - |
| 1777459383 | 13.33° C | 94% | 1007.8 hPa | 0 mm | - | - | - |
| 1777454183 | 13.33° C | 97% | 1007.8 hPa | 0 mm | - | - | - |
* Rain since midnight (hover to see other rain measurements)
** Current wind speed in m/s (hover to see current wind gust speed)